createdAt,value
2022-07-29T00:01:43.955Z,6.20
2022-07-29T00:04:45.463Z,5.70
2022-07-29T00:07:46.952Z,5.95
2022-07-29T00:10:48.432Z,6.13
2022-07-29T00:13:51.141Z,5.63
2022-07-29T00:16:52.888Z,6.07
2022-07-29T00:22:55.968Z,5.80
2022-07-29T00:29:33.153Z,5.95
2022-07-29T00:32:26.187Z,6.07
2022-07-29T00:35:45.565Z,5.90
2022-07-29T00:38:50.573Z,6.20
2022-07-29T00:41:52.080Z,5.82
2022-07-29T00:44:54.571Z,5.57
2022-07-29T00:47:56.028Z,6.10
2022-07-29T00:51:00.646Z,5.68
2022-07-29T00:54:03.117Z,5.70
2022-07-29T00:57:06.634Z,5.80
2022-07-29T01:00:12.081Z,5.82
2022-07-29T01:03:13.769Z,5.60
2022-07-29T01:09:19.778Z,5.53
2022-07-29T01:12:37.537Z,5.25
2022-07-29T01:15:49.461Z,5.75
2022-07-29T01:18:55.414Z,5.88
2022-07-29T01:22:00.667Z,5.75
2022-07-29T01:25:21.000Z,5.70
2022-07-29T01:28:57.990Z,5.80
2022-07-29T01:32:04.791Z,6.20
2022-07-29T01:35:17.135Z,5.90
2022-07-29T01:38:23.149Z,6.10
2022-07-29T01:41:27.582Z,5.97
2022-07-29T01:44:36.620Z,6.20
2022-07-29T01:48:01.834Z,6.18
2022-07-29T01:51:09.365Z,6.20
2022-07-29T01:54:20.842Z,6.40
2022-07-29T01:57:27.109Z,6.75
2022-07-29T02:00:32.459Z,6.78
2022-07-29T02:03:36.662Z,6.75
2022-07-29T02:06:41.610Z,6.82
2022-07-29T02:09:44.867Z,6.97
2022-07-29T02:12:50.732Z,6.63
2022-07-29T02:15:54.755Z,6.53
2022-07-29T02:18:58.935Z,6.70
2022-07-29T02:22:01.603Z,6.32
2022-07-29T02:25:03.824Z,6.55
2022-07-29T02:28:07.575Z,6.22
2022-07-29T02:31:10.385Z,6.72
2022-07-29T02:34:13.626Z,6.40
2022-07-29T02:37:18.180Z,6.80
2022-07-29T02:40:19.816Z,7.00
2022-07-29T02:43:23.503Z,6.57
2022-07-29T02:46:35.120Z,6.50
2022-07-29T02:49:44.008Z,6.75
2022-07-29T02:52:53.493Z,7.00
2022-07-29T02:56:01.473Z,6.57
2022-07-29T02:59:06.896Z,6.95
2022-07-29T03:02:10.634Z,6.78
2022-07-29T03:05:19.977Z,7.40
2022-07-29T03:08:22.789Z,7.07
2022-07-29T03:11:42.321Z,7.00
2022-07-29T03:14:47.375Z,6.63
2022-07-29T03:17:50.205Z,7.03
2022-07-29T03:20:51.731Z,7.30
2022-07-29T03:23:53.221Z,7.07
2022-07-29T03:26:56.235Z,6.97
2022-07-29T03:29:57.714Z,6.75
2022-07-29T03:32:59.751Z,7.00
2022-07-29T03:36:03.268Z,6.90
2022-07-29T03:39:05.718Z,7.38
2022-07-29T03:42:09.262Z,6.88
2022-07-29T03:45:16.338Z,6.78
2022-07-29T03:48:21.455Z,6.93
2022-07-29T03:51:33.066Z,6.93
2022-07-29T03:54:35.796Z,7.70
2022-07-29T03:57:38.814Z,7.50
2022-07-29T04:00:41.464Z,7.10
2022-07-29T04:03:43.024Z,7.30
2022-07-29T04:06:48.369Z,7.15
2022-07-29T04:09:50.181Z,7.57
2022-07-29T04:12:51.635Z,7.03
2022-07-29T04:15:53.112Z,7.25
2022-07-29T04:18:54.606Z,6.88
2022-07-29T04:21:56.101Z,7.25
2022-07-29T04:25:03.258Z,6.70
2022-07-29T04:28:05.696Z,7.35
2022-07-29T04:40:13.335Z,7.57
2022-07-29T04:43:16.145Z,7.20
2022-07-29T04:46:17.634Z,7.90
2022-07-29T04:49:19.243Z,7.30
2022-07-29T04:52:20.748Z,7.55
2022-07-29T04:55:22.214Z,7.57
2022-07-29T04:58:24.538Z,7.15
2022-07-29T05:01:26.081Z,7.30
2022-07-29T05:04:27.616Z,7.28
2022-07-29T05:07:29.178Z,7.78
2022-07-29T05:10:30.968Z,7.28
2022-07-29T05:16:49.580Z,7.97
2022-07-29T05:19:52.239Z,7.28
2022-07-29T05:22:53.815Z,7.97
2022-07-29T05:25:55.295Z,7.50
2022-07-29T05:28:57.943Z,7.60
2022-07-29T05:31:59.579Z,7.80
2022-07-29T05:35:01.805Z,7.80
2022-07-29T05:38:03.441Z,7.78
2022-07-29T05:41:06.253Z,7.47
2022-07-29T05:44:07.761Z,7.93
2022-07-29T05:47:09.673Z,7.47
2022-07-29T05:50:11.500Z,7.47
2022-07-29T05:53:20.072Z,7.35
2022-07-29T05:56:21.934Z,7.75
2022-07-29T05:59:27.051Z,7.13
2022-07-29T06:02:31.539Z,7.57
2022-07-29T06:08:34.860Z,7.38
2022-07-29T06:11:36.407Z,7.78
2022-07-29T06:14:39.245Z,8.00
2022-07-29T06:17:59.941Z,7.82
2022-07-29T06:21:02.332Z,7.60
2022-07-29T06:24:04.045Z,8.50
2022-07-29T06:27:05.495Z,7.45
2022-07-29T06:30:09.882Z,7.72
2022-07-29T06:33:17.514Z,7.70
2022-07-29T06:36:19.063Z,8.07
2022-07-29T06:42:22.347Z,8.20
2022-07-29T06:45:25.185Z,7.72
2022-07-29T06:48:30.379Z,7.90
2022-07-29T06:51:31.977Z,7.75
2022-07-29T06:54:33.752Z,8.00
2022-07-29T07:00:36.778Z,7.80
2022-07-29T07:03:38.253Z,7.95
2022-07-29T07:06:40.191Z,7.30
2022-07-29T07:09:41.707Z,7.30
2022-07-29T07:12:43.180Z,7.70
2022-07-29T07:15:46.436Z,7.18
2022-07-29T07:18:48.051Z,7.18
2022-07-29T07:21:49.557Z,6.90
2022-07-29T07:24:51.290Z,7.38
2022-07-29T07:30:54.125Z,7.33
2022-07-29T07:33:55.571Z,6.80
2022-07-29T07:36:57.232Z,6.45
2022-07-29T07:39:59.012Z,6.65
2022-07-29T07:46:01.945Z,7.60
2022-07-29T07:52:05.310Z,6.88
2022-07-29T07:55:08.659Z,7.63
2022-07-29T07:58:10.721Z,6.72
2022-07-29T08:01:12.217Z,6.97
2022-07-29T08:04:14.738Z,6.80
2022-07-29T08:07:16.520Z,6.60
2022-07-29T08:10:38.733Z,6.38
2022-07-29T08:13:40.238Z,5.82
2022-07-29T08:16:43.189Z,5.90
2022-07-29T08:19:44.725Z,5.40
2022-07-29T08:22:47.084Z,5.88
2022-07-29T08:25:50.261Z,5.72
2022-07-29T08:28:52.145Z,5.68
2022-07-29T08:31:54.066Z,5.80
2022-07-29T08:34:55.782Z,5.53
2022-07-29T08:37:57.814Z,5.95
2022-07-29T08:41:01.221Z,5.88
2022-07-29T08:44:02.904Z,5.68
2022-07-29T08:50:07.611Z,6.07
2022-07-29T08:53:13.019Z,5.72
2022-07-29T08:56:18.275Z,5.53
2022-07-29T08:59:25.566Z,5.95
2022-07-29T09:02:29.763Z,6.20
2022-07-29T09:05:36.892Z,6.18
2022-07-29T09:08:42.254Z,5.93
2022-07-29T09:11:45.277Z,5.78
2022-07-29T09:17:50.609Z,5.40
2022-07-29T09:21:12.115Z,5.53
2022-07-29T09:24:14.705Z,5.63
2022-07-29T09:27:29.931Z,5.30
2022-07-29T09:30:31.848Z,5.60
2022-07-29T09:33:41.282Z,5.70
2022-07-29T09:36:45.869Z,6.13
2022-07-29T09:39:47.453Z,5.75
2022-07-29T09:42:49.590Z,5.50
2022-07-29T09:45:51.202Z,5.45
2022-07-29T09:52:12.144Z,5.20
2022-07-29T09:55:18.154Z,5.53
2022-07-29T09:58:22.220Z,5.28
2022-07-29T10:01:30.179Z,5.63
2022-07-29T10:04:42.845Z,5.68
2022-07-29T10:07:50.569Z,5.40
2022-07-29T10:11:10.378Z,5.80
2022-07-29T10:14:12.167Z,5.47
2022-07-29T10:17:13.725Z,5.60
2022-07-29T10:23:18.206Z,5.07
2022-07-29T10:29:21.651Z,4.90
2022-07-29T10:35:51.071Z,4.75
2022-07-29T10:39:03.141Z,5.30
2022-07-29T10:42:20.322Z,5.47
2022-07-29T10:45:31.576Z,5.15
2022-07-29T10:48:33.307Z,5.63
2022-07-29T10:51:59.947Z,5.20
2022-07-29T10:55:03.977Z,5.18
2022-07-29T10:58:19.283Z,5.22
2022-07-29T11:01:37.044Z,5.10
2022-07-29T11:04:45.603Z,5.15
2022-07-29T11:08:20.288Z,5.18
2022-07-29T11:11:29.528Z,5.13
2022-07-29T11:14:53.363Z,5.15
2022-07-29T11:17:54.854Z,5.40
2022-07-29T11:24:18.709Z,4.70
2022-07-29T11:27:40.440Z,4.70
2022-07-29T11:30:50.599Z,4.65
2022-07-29T11:33:56.543Z,4.40
2022-07-29T11:37:08.126Z,4.72
2022-07-29T11:40:12.560Z,4.95
2022-07-29T11:43:53.474Z,4.22
2022-07-29T11:46:55.374Z,4.57
2022-07-29T11:49:59.950Z,4.53
2022-07-29T11:53:08.832Z,4.63
2022-07-29T11:56:16.427Z,4.68
2022-07-29T11:59:20.353Z,4.63
2022-07-29T12:02:38.264Z,4.57
2022-07-29T12:09:11.234Z,4.50
2022-07-29T12:12:17.892Z,4.80
2022-07-29T12:15:22.202Z,5.10
2022-07-29T12:18:24.599Z,4.40
2022-07-29T12:21:26.692Z,4.80
2022-07-29T12:24:44.996Z,4.55
2022-07-29T12:27:46.897Z,4.07
2022-07-29T12:30:51.748Z,4.03
2022-07-29T12:33:54.733Z,4.40
2022-07-29T12:36:57.173Z,4.47
2022-07-29T12:39:59.019Z,4.60
2022-07-29T12:43:08.481Z,4.28
2022-07-29T12:46:15.932Z,4.40
2022-07-29T12:49:24.084Z,4.75
2022-07-29T12:52:26.332Z,4.57
2022-07-29T12:55:50.007Z,4.50
2022-07-29T12:58:51.633Z,4.53
2022-07-29T13:01:53.311Z,4.25
2022-07-29T13:04:59.778Z,4.15
2022-07-29T13:08:30.835Z,4.00
2022-07-29T13:11:34.341Z,4.30
2022-07-29T13:14:39.448Z,3.88
2022-07-29T13:17:44.548Z,4.10
2022-07-29T13:20:49.517Z,4.18
2022-07-29T13:23:51.086Z,4.10
2022-07-29T13:26:53.394Z,4.15
2022-07-29T13:29:58.544Z,3.83
2022-07-29T13:33:00.040Z,4.13
2022-07-29T13:36:01.541Z,4.07
2022-07-29T13:39:03.707Z,3.75
2022-07-29T13:42:10.771Z,4.18
2022-07-29T13:45:12.774Z,3.72
2022-07-29T13:48:14.596Z,4.15
2022-07-29T13:51:16.295Z,3.70
2022-07-29T13:54:18.077Z,4.10
2022-07-29T13:57:20.092Z,3.50
2022-07-29T14:00:21.646Z,3.78
2022-07-29T14:03:23.305Z,3.70
2022-07-29T14:06:25.129Z,4.07
2022-07-29T14:09:27.080Z,3.60
2022-07-29T14:12:28.684Z,3.67
2022-07-29T14:15:30.149Z,3.65
2022-07-29T14:21:33.649Z,4.07
2022-07-29T14:24:38.551Z,3.75
2022-07-29T14:27:40.412Z,3.88
2022-07-29T14:30:44.187Z,4.47
2022-07-29T14:33:46.272Z,3.70
2022-07-29T14:36:50.986Z,3.88
2022-07-29T14:39:52.425Z,3.80
2022-07-29T14:42:54.167Z,3.30
2022-07-29T14:46:01.228Z,3.30
2022-07-29T14:49:04.506Z,3.50
2022-07-29T14:52:08.554Z,3.40
2022-07-29T14:55:16.589Z,3.50
2022-07-29T15:01:25.616Z,3.45
2022-07-29T15:04:27.268Z,3.20
2022-07-29T15:07:28.943Z,3.30
2022-07-29T15:10:30.573Z,3.83
2022-07-29T15:13:32.012Z,3.35
2022-07-29T15:25:40.539Z,3.50
2022-07-29T15:28:42.248Z,3.08
2022-07-29T15:31:44.731Z,3.35
2022-07-29T15:34:46.397Z,3.47
2022-07-29T15:40:50.922Z,3.38
2022-07-29T15:47:07.309Z,3.80
2022-07-29T15:50:14.315Z,3.78
2022-07-29T15:53:15.780Z,3.75
2022-07-29T15:59:22.409Z,3.50
2022-07-29T16:02:24.290Z,3.60
2022-07-29T16:05:26.180Z,4.00
2022-07-29T16:08:27.745Z,3.70
2022-07-29T16:11:29.184Z,4.00
2022-07-29T16:17:32.045Z,4.55
2022-07-29T16:23:34.863Z,3.90
2022-07-29T16:29:37.767Z,3.83
2022-07-29T16:35:41.252Z,4.20
2022-07-29T16:41:49.261Z,3.97
2022-07-29T16:44:50.893Z,3.83
2022-07-29T16:48:00.188Z,3.60
2022-07-29T16:51:02.588Z,3.67
2022-07-29T16:54:04.229Z,3.20
2022-07-29T16:57:05.720Z,3.67
2022-07-29T17:00:08.073Z,3.15
2022-07-29T17:03:09.708Z,3.25
2022-07-29T17:06:11.749Z,3.17
2022-07-29T17:12:16.781Z,2.92
2022-07-29T17:15:18.587Z,3.20
2022-07-29T17:18:20.058Z,3.78
2022-07-29T17:24:23.551Z,3.55
2022-07-29T17:27:25.804Z,2.90
2022-07-29T17:33:28.912Z,4.55
2022-07-29T17:42:34.273Z,2.90
2022-07-29T17:48:52.426Z,3.30
2022-07-29T17:51:57.617Z,3.33
2022-07-29T17:55:02.567Z,3.20
2022-07-29T17:58:04.072Z,3.20
2022-07-29T18:04:08.663Z,3.40
2022-07-29T18:07:10.568Z,3.10
2022-07-29T18:10:12.087Z,3.03
2022-07-29T18:16:15.311Z,2.78
2022-07-29T18:22:19.187Z,2.80
2022-07-29T18:25:20.810Z,2.50
2022-07-29T18:28:22.355Z,2.50
2022-07-29T18:34:25.448Z,2.92
2022-07-29T18:38:02.142Z,2.92
2022-07-29T18:40:48.709Z,3.05
2022-07-29T18:43:50.220Z,2.90
2022-07-29T18:49:53.705Z,2.80
2022-07-29T18:56:00.245Z,2.70
2022-07-29T18:59:03.056Z,3.00
2022-07-29T19:02:04.720Z,3.00
2022-07-29T19:05:08.246Z,2.75
2022-07-29T19:08:09.759Z,3.10
2022-07-29T19:14:14.381Z,3.20
2022-07-29T19:17:15.846Z,3.00
2022-07-29T19:20:17.513Z,2.70
2022-07-29T19:23:19.536Z,3.03
2022-07-29T19:26:21.033Z,3.33
2022-07-29T19:32:25.604Z,3.10
2022-07-29T19:35:33.432Z,3.10
2022-07-29T19:38:35.004Z,3.30
2022-07-29T19:41:36.618Z,3.13
2022-07-29T19:47:39.688Z,3.10
2022-07-29T19:50:41.696Z,3.28
2022-07-29T19:53:45.202Z,3.38
2022-07-29T19:59:48.336Z,2.85
2022-07-29T20:02:51.731Z,3.10
2022-07-29T20:05:53.437Z,3.08
2022-07-29T20:12:00.777Z,2.83
2022-07-29T20:15:02.274Z,3.15
2022-07-29T20:18:04.000Z,3.25
2022-07-29T20:24:07.355Z,3.58
2022-07-29T20:27:13.564Z,3.33
2022-07-29T20:30:15.356Z,3.22
2022-07-29T20:33:19.236Z,3.20
2022-07-29T20:36:20.759Z,3.20
2022-07-29T20:39:22.252Z,3.25
2022-07-29T20:42:23.773Z,3.50
2022-07-29T20:45:25.511Z,3.88
2022-07-29T20:51:28.568Z,3.53
2022-07-29T20:57:39.390Z,3.40
2022-07-29T21:00:41.302Z,3.35
2022-07-29T21:03:42.796Z,3.60
2022-07-29T21:06:44.253Z,3.35
2022-07-29T21:09:45.943Z,3.38
2022-07-29T21:15:50.692Z,3.20
2022-07-29T21:18:53.088Z,3.20
2022-07-29T21:21:54.667Z,3.20
2022-07-29T21:28:16.340Z,3.17
2022-07-29T21:31:18.083Z,2.90
2022-07-29T21:34:19.538Z,3.10
2022-07-29T21:37:21.562Z,2.88
2022-07-29T21:40:23.083Z,3.58
2022-07-29T21:43:26.591Z,3.00
2022-07-29T21:46:28.133Z,3.50
2022-07-29T21:52:31.202Z,2.85
2022-07-29T21:55:33.150Z,2.97
2022-07-29T22:01:39.396Z,2.78
2022-07-29T22:04:41.213Z,2.83
2022-07-29T22:10:57.178Z,3.05
2022-07-29T22:13:59.115Z,2.97
2022-07-29T22:17:00.839Z,3.30
2022-07-29T22:20:02.983Z,2.90
2022-07-29T22:23:04.450Z,2.72
2022-07-29T22:26:05.953Z,3.17
2022-07-29T22:29:07.507Z,2.97
2022-07-29T22:32:09.276Z,3.20
2022-07-29T22:35:11.261Z,2.80
2022-07-29T22:38:12.717Z,3.00
2022-07-29T22:41:15.638Z,3.35
2022-07-29T22:44:17.297Z,3.05
2022-07-29T22:47:18.793Z,3.70
2022-07-29T22:50:40.290Z,3.17
2022-07-29T22:53:41.820Z,2.80
2022-07-29T22:56:43.257Z,3.05
2022-07-29T22:59:44.757Z,3.00
2022-07-29T23:02:47.580Z,3.33
2022-07-29T23:05:51.464Z,3.08
2022-07-29T23:08:52.933Z,2.80
2022-07-29T23:11:54.393Z,3.10
2022-07-29T23:14:55.894Z,3.20
2022-07-29T23:17:57.350Z,3.10
2022-07-29T23:20:58.825Z,3.17
2022-07-29T23:24:00.263Z,3.20
2022-07-29T23:27:01.960Z,3.50
2022-07-29T23:30:04.531Z,3.33
2022-07-29T23:33:06.249Z,3.10
2022-07-29T23:39:11.308Z,3.58
2022-07-29T23:42:12.898Z,3.15
2022-07-29T23:45:14.586Z,3.50
2022-07-29T23:51:17.514Z,3.20
2022-07-29T23:54:19.040Z,3.42
2022-07-29T23:57:24.323Z,3.58
